sensor_id;sensor_type;location;lat;lon;timestamp;P1;durP1;ratioP1;P2;durP2;ratioP2
63218;SDS011;49320;52.512;13.448;2024-02-21T00:00:36;12.10;;;4.25;;
63218;SDS011;49320;52.512;13.448;2024-02-21T00:03:04;9.32;;;4.05;;
63218;SDS011;49320;52.512;13.448;2024-02-21T00:05:31;13.13;;;4.28;;
63218;SDS011;49320;52.512;13.448;2024-02-21T00:07:58;10.98;;;4.07;;
63218;SDS011;49320;52.512;13.448;2024-02-21T00:10:26;9.75;;;4.45;;
63218;SDS011;49320;52.512;13.448;2024-02-21T00:12:53;9.32;;;4.25;;
63218;SDS011;49320;52.512;13.448;2024-02-21T00:15:20;9.77;;;3.63;;
63218;SDS011;49320;52.512;13.448;2024-02-21T00:17:47;9.07;;;4.00;;
63218;SDS011;49320;52.512;13.448;2024-02-21T00:20:15;9.63;;;3.90;;
63218;SDS011;49320;52.512;13.448;2024-02-21T00:22:42;11.18;;;4.00;;
63218;SDS011;49320;52.512;13.448;2024-02-21T00:25:09;8.35;;;3.80;;
63218;SDS011;49320;52.512;13.448;2024-02-21T00:27:36;9.75;;;3.95;;
63218;SDS011;49320;52.512;13.448;2024-02-21T00:30:03;9.38;;;4.07;;
63218;SDS011;49320;52.512;13.448;2024-02-21T00:32:32;7.15;;;3.53;;
63218;SDS011;49320;52.512;13.448;2024-02-21T00:35:00;10.00;;;4.07;;
63218;SDS011;49320;52.512;13.448;2024-02-21T00:37:27;10.02;;;3.70;;
63218;SDS011;49320;52.512;13.448;2024-02-21T00:39:54;8.00;;;3.60;;
63218;SDS011;49320;52.512;13.448;2024-02-21T00:42:21;9.65;;;3.42;;
63218;SDS011;49320;52.512;13.448;2024-02-21T00:44:48;8.43;;;3.65;;
63218;SDS011;49320;52.512;13.448;2024-02-21T00:47:15;8.48;;;3.50;;
63218;SDS011;49320;52.512;13.448;2024-02-21T00:49:42;8.25;;;3.22;;
63218;SDS011;49320;52.512;13.448;2024-02-21T00:52:08;8.98;;;3.53;;
63218;SDS011;49320;52.512;13.448;2024-02-21T00:54:35;7.97;;;3.47;;
63218;SDS011;49320;52.512;13.448;2024-02-21T00:57:15;8.95;;;3.92;;
63218;SDS011;49320;52.512;13.448;2024-02-21T00:59:42;7.72;;;3.55;;
63218;SDS011;49320;52.512;13.448;2024-02-21T01:02:09;8.65;;;3.55;;
63218;SDS011;49320;52.512;13.448;2024-02-21T01:04:36;8.40;;;3.30;;
63218;SDS011;49320;52.512;13.448;2024-02-21T01:07:03;7.22;;;3.35;;
63218;SDS011;49320;52.512;13.448;2024-02-21T01:09:30;8.88;;;2.97;;
63218;SDS011;49320;52.512;13.448;2024-02-21T01:11:56;8.13;;;3.47;;
63218;SDS011;49320;52.512;13.448;2024-02-21T01:14:23;6.97;;;3.17;;
63218;SDS011;49320;52.512;13.448;2024-02-21T01:16:50;8.43;;;3.75;;
63218;SDS011;49320;52.512;13.448;2024-02-21T01:19:17;8.55;;;3.45;;
63218;SDS011;49320;52.512;13.448;2024-02-21T01:21:44;7.90;;;3.55;;
63218;SDS011;49320;52.512;13.448;2024-02-21T01:24:11;7.25;;;3.45;;
63218;SDS011;49320;52.512;13.448;2024-02-21T01:26:38;8.07;;;3.65;;
63218;SDS011;49320;52.512;13.448;2024-02-21T01:29:05;11.10;;;3.72;;
63218;SDS011;49320;52.512;13.448;2024-02-21T01:31:32;6.97;;;3.58;;
63218;SDS011;49320;52.512;13.448;2024-02-21T01:33:59;8.27;;;3.00;;
63218;SDS011;49320;52.512;13.448;2024-02-21T01:36:27;11.00;;;3.92;;
63218;SDS011;49320;52.512;13.448;2024-02-21T01:38:53;10.50;;;3.40;;
63218;SDS011;49320;52.512;13.448;2024-02-21T01:41:20;6.90;;;3.15;;
63218;SDS011;49320;52.512;13.448;2024-02-21T01:43:47;8.20;;;3.45;;
63218;SDS011;49320;52.512;13.448;2024-02-21T01:46:14;8.77;;;3.88;;
63218;SDS011;49320;52.512;13.448;2024-02-21T01:48:41;8.32;;;3.33;;
63218;SDS011;49320;52.512;13.448;2024-02-21T01:51:08;8.40;;;3.33;;
63218;SDS011;49320;52.512;13.448;2024-02-21T01:53:36;9.98;;;3.60;;
63218;SDS011;49320;52.512;13.448;2024-02-21T01:56:08;7.72;;;3.25;;
63218;SDS011;49320;52.512;13.448;2024-02-21T01:58:36;10.35;;;3.30;;
63218;SDS011;49320;52.512;13.448;2024-02-21T02:01:06;7.97;;;3.83;;
63218;SDS011;49320;52.512;13.448;2024-02-21T02:03:33;7.68;;;3.60;;
63218;SDS011;49320;52.512;13.448;2024-02-21T02:06:01;9.20;;;3.70;;
63218;SDS011;49320;52.512;13.448;2024-02-21T02:08:28;6.93;;;3.20;;
63218;SDS011;49320;52.512;13.448;2024-02-21T02:10:55;9.63;;;3.97;;
63218;SDS011;49320;52.512;13.448;2024-02-21T02:13:22;6.20;;;3.38;;
63218;SDS011;49320;52.512;13.448;2024-02-21T02:15:49;7.15;;;3.40;;
63218;SDS011;49320;52.512;13.448;2024-02-21T02:18:17;8.48;;;3.25;;
63218;SDS011;49320;52.512;13.448;2024-02-21T02:20:45;7.00;;;3.05;;
63218;SDS011;49320;52.512;13.448;2024-02-21T02:23:19;10.82;;;3.58;;
63218;SDS011;49320;52.512;13.448;2024-02-21T02:25:54;7.38;;;3.10;;
63218;SDS011;49320;52.512;13.448;2024-02-21T02:28:21;8.95;;;3.40;;
63218;SDS011;49320;52.512;13.448;2024-02-21T02:30:48;8.15;;;3.25;;
63218;SDS011;49320;52.512;13.448;2024-02-21T02:33:15;7.90;;;3.58;;
63218;SDS011;49320;52.512;13.448;2024-02-21T02:35:46;7.78;;;3.40;;
63218;SDS011;49320;52.512;13.448;2024-02-21T02:38:12;9.38;;;3.47;;
63218;SDS011;49320;52.512;13.448;2024-02-21T02:40:40;8.05;;;2.90;;
63218;SDS011;49320;52.512;13.448;2024-02-21T02:43:08;9.80;;;3.30;;
63218;SDS011;49320;52.512;13.448;2024-02-21T02:45:35;8.93;;;3.25;;
63218;SDS011;49320;52.512;13.448;2024-02-21T02:48:02;9.95;;;3.10;;
63218;SDS011;49320;52.512;13.448;2024-02-21T02:50:29;8.57;;;3.42;;
63218;SDS011;49320;52.512;13.448;2024-02-21T02:52:57;8.32;;;3.28;;
63218;SDS011;49320;52.512;13.448;2024-02-21T02:55:24;7.65;;;3.30;;
63218;SDS011;49320;52.512;13.448;2024-02-21T02:57:52;6.72;;;3.10;;
63218;SDS011;49320;52.512;13.448;2024-02-21T03:00:19;7.97;;;3.25;;
63218;SDS011;49320;52.512;13.448;2024-02-21T03:02:48;8.30;;;3.42;;
63218;SDS011;49320;52.512;13.448;2024-02-21T03:05:17;7.22;;;3.47;;
63218;SDS011;49320;52.512;13.448;2024-02-21T03:07:48;4.97;;;2.55;;
63218;SDS011;49320;52.512;13.448;2024-02-21T03:10:15;6.97;;;3.15;;
63218;SDS011;49320;52.512;13.448;2024-02-21T03:12:44;7.07;;;3.53;;
63218;SDS011;49320;52.512;13.448;2024-02-21T03:15:11;8.80;;;3.92;;
63218;SDS011;49320;52.512;13.448;2024-02-21T03:17:39;7.50;;;3.08;;
63218;SDS011;49320;52.512;13.448;2024-02-21T03:20:07;10.32;;;3.58;;
63218;SDS011;49320;52.512;13.448;2024-02-21T03:22:37;7.88;;;3.30;;
63218;SDS011;49320;52.512;13.448;2024-02-21T03:25:04;9.10;;;3.47;;
63218;SDS011;49320;52.512;13.448;2024-02-21T03:27:33;9.75;;;3.47;;
63218;SDS011;49320;52.512;13.448;2024-02-21T03:30:00;9.52;;;3.67;;
63218;SDS011;49320;52.512;13.448;2024-02-21T03:32:26;7.45;;;3.17;;
63218;SDS011;49320;52.512;13.448;2024-02-21T03:34:55;5.97;;;2.88;;
63218;SDS011;49320;52.512;13.448;2024-02-21T03:37:22;9.82;;;3.50;;
63218;SDS011;49320;52.512;13.448;2024-02-21T03:39:48;7.50;;;3.47;;
63218;SDS011;49320;52.512;13.448;2024-02-21T03:42:15;7.60;;;3.33;;
63218;SDS011;49320;52.512;13.448;2024-02-21T03:44:43;9.30;;;4.57;;
63218;SDS011;49320;52.512;13.448;2024-02-21T03:47:10;8.25;;;3.60;;
63218;SDS011;49320;52.512;13.448;2024-02-21T03:49:38;8.18;;;4.10;;
63218;SDS011;49320;52.512;13.448;2024-02-21T03:52:05;7.40;;;3.78;;
63218;SDS011;49320;52.512;13.448;2024-02-21T03:54:32;10.55;;;4.18;;
63218;SDS011;49320;52.512;13.448;2024-02-21T03:56:59;7.75;;;3.95;;
63218;SDS011;49320;52.512;13.448;2024-02-21T03:59:26;7.20;;;3.65;;
63218;SDS011;49320;52.512;13.448;2024-02-21T04:01:53;6.03;;;3.45;;
63218;SDS011;49320;52.512;13.448;2024-02-21T04:04:20;7.32;;;3.40;;
63218;SDS011;49320;52.512;13.448;2024-02-21T04:06:48;8.02;;;3.85;;
63218;SDS011;49320;52.512;13.448;2024-02-21T04:09:16;7.13;;;3.83;;
63218;SDS011;49320;52.512;13.448;2024-02-21T04:11:43;9.07;;;4.00;;
63218;SDS011;49320;52.512;13.448;2024-02-21T04:14:11;6.53;;;3.78;;
63218;SDS011;49320;52.512;13.448;2024-02-21T04:16:38;6.15;;;3.25;;
63218;SDS011;49320;52.512;13.448;2024-02-21T04:19:05;7.72;;;4.15;;
63218;SDS011;49320;52.512;13.448;2024-02-21T04:21:33;9.43;;;4.65;;
63218;SDS011;49320;52.512;13.448;2024-02-21T04:24:01;9.13;;;3.95;;
63218;SDS011;49320;52.512;13.448;2024-02-21T04:26:29;7.63;;;4.00;;
63218;SDS011;49320;52.512;13.448;2024-02-21T04:28:56;9.90;;;4.78;;
63218;SDS011;49320;52.512;13.448;2024-02-21T04:31:23;8.40;;;4.57;;
63218;SDS011;49320;52.512;13.448;2024-02-21T04:33:51;10.15;;;4.72;;
63218;SDS011;49320;52.512;13.448;2024-02-21T04:36:18;8.68;;;4.40;;
63218;SDS011;49320;52.512;13.448;2024-02-21T04:38:45;8.35;;;4.30;;
63218;SDS011;49320;52.512;13.448;2024-02-21T04:41:12;8.93;;;4.07;;
63218;SDS011;49320;52.512;13.448;2024-02-21T04:43:38;9.13;;;3.95;;
63218;SDS011;49320;52.512;13.448;2024-02-21T04:46:05;7.15;;;3.83;;
63218;SDS011;49320;52.512;13.448;2024-02-21T04:48:32;8.88;;;4.25;;
63218;SDS011;49320;52.512;13.448;2024-02-21T04:51:00;7.85;;;5.07;;
63218;SDS011;49320;52.512;13.448;2024-02-21T04:53:26;8.45;;;4.07;;
63218;SDS011;49320;52.512;13.448;2024-02-21T04:55:53;9.32;;;4.57;;
63218;SDS011;49320;52.512;13.448;2024-02-21T04:58:20;8.50;;;4.28;;
63218;SDS011;49320;52.512;13.448;2024-02-21T05:00:47;6.93;;;3.67;;
63218;SDS011;49320;52.512;13.448;2024-02-21T05:03:14;7.70;;;3.95;;
63218;SDS011;49320;52.512;13.448;2024-02-21T05:05:41;8.15;;;4.07;;
63218;SDS011;49320;52.512;13.448;2024-02-21T05:08:09;8.48;;;4.05;;
63218;SDS011;49320;52.512;13.448;2024-02-21T05:10:36;6.15;;;3.65;;
63218;SDS011;49320;52.512;13.448;2024-02-21T05:13:03;8.00;;;3.78;;
63218;SDS011;49320;52.512;13.448;2024-02-21T05:15:31;7.43;;;3.38;;
63218;SDS011;49320;52.512;13.448;2024-02-21T05:17:58;6.57;;;3.88;;
63218;SDS011;49320;52.512;13.448;2024-02-21T05:20:25;8.15;;;4.13;;
63218;SDS011;49320;52.512;13.448;2024-02-21T05:22:52;9.38;;;5.05;;
63218;SDS011;49320;52.512;13.448;2024-02-21T05:25:18;6.80;;;3.67;;
63218;SDS011;49320;52.512;13.448;2024-02-21T05:27:45;8.20;;;4.20;;
63218;SDS011;49320;52.512;13.448;2024-02-21T05:30:12;7.72;;;4.20;;
63218;SDS011;49320;52.512;13.448;2024-02-21T05:32:39;7.13;;;4.15;;
63218;SDS011;49320;52.512;13.448;2024-02-21T05:35:06;7.25;;;3.80;;
63218;SDS011;49320;52.512;13.448;2024-02-21T05:37:33;7.45;;;4.18;;
63218;SDS011;49320;52.512;13.448;2024-02-21T05:40:00;7.45;;;4.47;;
63218;SDS011;49320;52.512;13.448;2024-02-21T05:42:27;7.50;;;4.20;;
63218;SDS011;49320;52.512;13.448;2024-02-21T05:44:54;6.43;;;4.03;;
63218;SDS011;49320;52.512;13.448;2024-02-21T05:47:21;6.15;;;3.95;;
63218;SDS011;49320;52.512;13.448;2024-02-21T05:49:48;9.52;;;3.88;;
63218;SDS011;49320;52.512;13.448;2024-02-21T05:52:15;9.85;;;4.43;;
63218;SDS011;49320;52.512;13.448;2024-02-21T05:54:42;11.05;;;4.60;;
63218;SDS011;49320;52.512;13.448;2024-02-21T05:57:11;9.95;;;4.35;;
63218;SDS011;49320;52.512;13.448;2024-02-21T05:59:38;9.43;;;4.97;;
63218;SDS011;49320;52.512;13.448;2024-02-21T06:02:06;8.13;;;4.05;;
63218;SDS011;49320;52.512;13.448;2024-02-21T06:04:33;9.43;;;4.90;;
63218;SDS011;49320;52.512;13.448;2024-02-21T06:07:00;8.80;;;4.50;;
63218;SDS011;49320;52.512;13.448;2024-02-21T06:09:28;8.15;;;4.30;;
63218;SDS011;49320;52.512;13.448;2024-02-21T06:11:55;9.35;;;5.03;;
63218;SDS011;49320;52.512;13.448;2024-02-21T06:14:22;8.18;;;4.60;;
63218;SDS011;49320;52.512;13.448;2024-02-21T06:16:49;6.00;;;3.88;;
63218;SDS011;49320;52.512;13.448;2024-02-21T06:19:15;6.63;;;4.53;;
63218;SDS011;49320;52.512;13.448;2024-02-21T06:21:43;10.20;;;4.78;;
63218;SDS011;49320;52.512;13.448;2024-02-21T06:24:10;7.68;;;4.40;;
63218;SDS011;49320;52.512;13.448;2024-02-21T06:26:39;7.47;;;4.43;;
63218;SDS011;49320;52.512;13.448;2024-02-21T06:29:06;6.80;;;4.63;;
63218;SDS011;49320;52.512;13.448;2024-02-21T06:31:34;8.20;;;4.18;;
63218;SDS011;49320;52.512;13.448;2024-02-21T06:34:02;8.43;;;4.95;;
63218;SDS011;49320;52.512;13.448;2024-02-21T06:36:29;9.63;;;4.85;;
63218;SDS011;49320;52.512;13.448;2024-02-21T06:38:56;8.25;;;5.15;;
63218;SDS011;49320;52.512;13.448;2024-02-21T06:41:23;9.05;;;5.07;;
63218;SDS011;49320;52.512;13.448;2024-02-21T06:43:50;9.93;;;5.68;;
63218;SDS011;49320;52.512;13.448;2024-02-21T06:46:24;11.15;;;6.25;;
63218;SDS011;49320;52.512;13.448;2024-02-21T06:48:52;11.95;;;5.32;;
63218;SDS011;49320;52.512;13.448;2024-02-21T06:51:19;8.70;;;4.70;;
63218;SDS011;49320;52.512;13.448;2024-02-21T06:53:46;9.68;;;4.97;;
63218;SDS011;49320;52.512;13.448;2024-02-21T06:56:13;10.75;;;4.85;;
63218;SDS011;49320;52.512;13.448;2024-02-21T06:58:40;6.70;;;4.57;;
63218;SDS011;49320;52.512;13.448;2024-02-21T07:01:07;8.25;;;4.93;;
63218;SDS011;49320;52.512;13.448;2024-02-21T07:03:35;9.18;;;5.18;;
63218;SDS011;49320;52.512;13.448;2024-02-21T07:06:02;8.55;;;4.85;;
63218;SDS011;49320;52.512;13.448;2024-02-21T07:08:30;8.88;;;5.18;;
63218;SDS011;49320;52.512;13.448;2024-02-21T07:10:57;9.50;;;4.72;;
63218;SDS011;49320;52.512;13.448;2024-02-21T07:13:23;10.80;;;5.20;;
63218;SDS011;49320;52.512;13.448;2024-02-21T07:15:50;8.68;;;5.28;;
63218;SDS011;49320;52.512;13.448;2024-02-21T07:18:17;7.90;;;5.63;;
63218;SDS011;49320;52.512;13.448;2024-02-21T07:20:45;7.93;;;5.50;;
63218;SDS011;49320;52.512;13.448;2024-02-21T07:23:12;11.07;;;5.47;;
63218;SDS011;49320;52.512;13.448;2024-02-21T07:25:39;9.15;;;5.38;;
63218;SDS011;49320;52.512;13.448;2024-02-21T07:28:06;8.13;;;5.10;;
63218;SDS011;49320;52.512;13.448;2024-02-21T07:30:33;8.52;;;5.28;;
63218;SDS011;49320;52.512;13.448;2024-02-21T07:33:00;8.55;;;5.75;;
63218;SDS011;49320;52.512;13.448;2024-02-21T07:35:26;9.20;;;5.90;;
63218;SDS011;49320;52.512;13.448;2024-02-21T07:37:53;7.75;;;5.03;;
63218;SDS011;49320;52.512;13.448;2024-02-21T07:40:20;8.75;;;5.43;;
63218;SDS011;49320;52.512;13.448;2024-02-21T07:42:47;7.40;;;4.78;;
63218;SDS011;49320;52.512;13.448;2024-02-21T07:45:17;8.23;;;5.38;;
63218;SDS011;49320;52.512;13.448;2024-02-21T07:47:50;7.43;;;5.18;;
63218;SDS011;49320;52.512;13.448;2024-02-21T07:50:17;9.57;;;5.28;;
63218;SDS011;49320;52.512;13.448;2024-02-21T07:52:44;9.60;;;4.70;;
63218;SDS011;49320;52.512;13.448;2024-02-21T07:55:11;8.88;;;5.10;;
63218;SDS011;49320;52.512;13.448;2024-02-21T07:57:38;8.63;;;5.28;;
63218;SDS011;49320;52.512;13.448;2024-02-21T08:00:05;9.35;;;5.13;;
63218;SDS011;49320;52.512;13.448;2024-02-21T08:02:35;8.68;;;4.82;;
63218;SDS011;49320;52.512;13.448;2024-02-21T08:05:03;7.72;;;4.32;;
63218;SDS011;49320;52.512;13.448;2024-02-21T08:07:30;10.25;;;5.03;;
63218;SDS011;49320;52.512;13.448;2024-02-21T08:09:57;12.30;;;5.43;;
63218;SDS011;49320;52.512;13.448;2024-02-21T08:12:24;9.02;;;4.75;;
63218;SDS011;49320;52.512;13.448;2024-02-21T08:14:51;6.53;;;4.45;;
63218;SDS011;49320;52.512;13.448;2024-02-21T08:17:18;9.70;;;4.70;;
63218;SDS011;49320;52.512;13.448;2024-02-21T08:19:45;8.55;;;5.38;;
63218;SDS011;49320;52.512;13.448;2024-02-21T08:22:11;8.98;;;4.95;;
63218;SDS011;49320;52.512;13.448;2024-02-21T08:24:38;11.82;;;5.88;;
63218;SDS011;49320;52.512;13.448;2024-02-21T08:27:05;8.52;;;5.68;;
63218;SDS011;49320;52.512;13.448;2024-02-21T08:29:32;10.43;;;5.50;;
63218;SDS011;49320;52.512;13.448;2024-02-21T08:31:59;9.95;;;5.22;;
63218;SDS011;49320;52.512;13.448;2024-02-21T08:34:26;8.43;;;5.03;;
63218;SDS011;49320;52.512;13.448;2024-02-21T08:36:55;9.98;;;5.50;;
63218;SDS011;49320;52.512;13.448;2024-02-21T08:39:22;9.85;;;5.97;;
63218;SDS011;49320;52.512;13.448;2024-02-21T08:41:49;8.20;;;5.47;;
63218;SDS011;49320;52.512;13.448;2024-02-21T08:44:23;9.52;;;5.60;;
63218;SDS011;49320;52.512;13.448;2024-02-21T08:46:53;8.38;;;5.20;;
63218;SDS011;49320;52.512;13.448;2024-02-21T08:49:21;8.07;;;5.65;;
63218;SDS011;49320;52.512;13.448;2024-02-21T08:51:48;10.63;;;5.93;;
63218;SDS011;49320;52.512;13.448;2024-02-21T08:54:15;11.50;;;6.65;;
63218;SDS011;49320;52.512;13.448;2024-02-21T08:56:43;10.70;;;5.55;;
63218;SDS011;49320;52.512;13.448;2024-02-21T08:59:09;10.85;;;6.43;;
63218;SDS011;49320;52.512;13.448;2024-02-21T09:01:36;8.23;;;5.70;;
63218;SDS011;49320;52.512;13.448;2024-02-21T09:04:04;8.90;;;5.57;;
63218;SDS011;49320;52.512;13.448;2024-02-21T09:06:31;11.02;;;6.15;;
63218;SDS011;49320;52.512;13.448;2024-02-21T09:09:00;9.13;;;5.65;;
63218;SDS011;49320;52.512;13.448;2024-02-21T09:11:27;10.07;;;6.30;;
63218;SDS011;49320;52.512;13.448;2024-02-21T09:13:54;11.30;;;6.50;;
63218;SDS011;49320;52.512;13.448;2024-02-21T09:16:22;12.52;;;6.20;;
63218;SDS011;49320;52.512;13.448;2024-02-21T09:18:50;10.27;;;6.20;;
63218;SDS011;49320;52.512;13.448;2024-02-21T09:21:17;8.68;;;6.00;;
63218;SDS011;49320;52.512;13.448;2024-02-21T09:23:44;8.98;;;6.40;;
63218;SDS011;49320;52.512;13.448;2024-02-21T09:26:12;7.97;;;6.05;;
63218;SDS011;49320;52.512;13.448;2024-02-21T09:28:42;10.10;;;6.43;;
63218;SDS011;49320;52.512;13.448;2024-02-21T09:31:13;8.48;;;6.07;;
63218;SDS011;49320;52.512;13.448;2024-02-21T09:33:40;10.35;;;6.55;;
63218;SDS011;49320;52.512;13.448;2024-02-21T09:36:07;11.43;;;6.70;;
63218;SDS011;49320;52.512;13.448;2024-02-21T09:38:34;12.02;;;7.10;;
63218;SDS011;49320;52.512;13.448;2024-02-21T09:41:08;7.30;;;5.75;;
63218;SDS011;49320;52.512;13.448;2024-02-21T09:43:51;10.68;;;6.18;;
63218;SDS011;49320;52.512;13.448;2024-02-21T09:46:21;10.20;;;7.18;;
63218;SDS011;49320;52.512;13.448;2024-02-21T09:49:21;16.33;;;7.15;;
63218;SDS011;49320;52.512;13.448;2024-02-21T09:52:05;8.57;;;6.30;;
63218;SDS011;49320;52.512;13.448;2024-02-21T09:54:33;12.15;;;6.93;;
63218;SDS011;49320;52.512;13.448;2024-02-21T09:57:01;10.02;;;7.32;;
63218;SDS011;49320;52.512;13.448;2024-02-21T09:59:32;8.43;;;6.38;;
63218;SDS011;49320;52.512;13.448;2024-02-21T10:02:00;9.10;;;6.30;;
63218;SDS011;49320;52.512;13.448;2024-02-21T10:04:28;9.10;;;6.68;;
63218;SDS011;49320;52.512;13.448;2024-02-21T10:06:56;9.60;;;6.53;;
63218;SDS011;49320;52.512;13.448;2024-02-21T10:09:26;11.13;;;7.03;;
63218;SDS011;49320;52.512;13.448;2024-02-21T10:11:56;9.77;;;6.28;;
63218;SDS011;49320;52.512;13.448;2024-02-21T10:14:37;9.10;;;7.07;;
63218;SDS011;49320;52.512;13.448;2024-02-21T10:17:04;11.25;;;6.93;;
63218;SDS011;49320;52.512;13.448;2024-02-21T10:19:36;8.73;;;6.18;;
63218;SDS011;49320;52.512;13.448;2024-02-21T10:22:05;10.60;;;6.10;;
63218;SDS011;49320;52.512;13.448;2024-02-21T10:24:34;10.70;;;6.63;;
63218;SDS011;49320;52.512;13.448;2024-02-21T10:27:08;8.82;;;5.80;;
63218;SDS011;49320;52.512;13.448;2024-02-21T10:29:40;7.88;;;5.43;;
63218;SDS011;49320;52.512;13.448;2024-02-21T10:32:08;10.05;;;6.40;;
63218;SDS011;49320;52.512;13.448;2024-02-21T10:34:39;9.77;;;6.78;;
63218;SDS011;49320;52.512;13.448;2024-02-21T10:37:09;11.05;;;6.75;;
63218;SDS011;49320;52.512;13.448;2024-02-21T10:39:40;10.10;;;6.38;;
63218;SDS011;49320;52.512;13.448;2024-02-21T10:42:10;8.10;;;5.60;;
63218;SDS011;49320;52.512;13.448;2024-02-21T10:44:39;8.88;;;5.88;;
63218;SDS011;49320;52.512;13.448;2024-02-21T10:47:08;9.27;;;6.40;;
63218;SDS011;49320;52.512;13.448;2024-02-21T10:49:40;7.90;;;5.88;;
63218;SDS011;49320;52.512;13.448;2024-02-21T10:55:16;9.32;;;6.00;;
63218;SDS011;49320;52.512;13.448;2024-02-21T10:57:51;10.45;;;6.38;;
63218;SDS011;49320;52.512;13.448;2024-02-21T11:00:19;8.35;;;6.30;;
63218;SDS011;49320;52.512;13.448;2024-02-21T11:02:47;6.95;;;5.55;;
63218;SDS011;49320;52.512;13.448;2024-02-21T11:05:15;13.27;;;6.13;;
63218;SDS011;49320;52.512;13.448;2024-02-21T11:07:44;7.40;;;5.30;;
63218;SDS011;49320;52.512;13.448;2024-02-21T11:10:23;11.32;;;5.72;;
63218;SDS011;49320;52.512;13.448;2024-02-21T11:13:07;12.15;;;6.20;;
63218;SDS011;49320;52.512;13.448;2024-02-21T11:15:35;8.73;;;6.32;;
63218;SDS011;49320;52.512;13.448;2024-02-21T11:18:02;8.95;;;6.57;;
63218;SDS011;49320;52.512;13.448;2024-02-21T11:20:33;9.52;;;6.78;;
63218;SDS011;49320;52.512;13.448;2024-02-21T11:23:03;7.75;;;5.68;;
63218;SDS011;49320;52.512;13.448;2024-02-21T11:25:31;6.05;;;4.85;;
63218;SDS011;49320;52.512;13.448;2024-02-21T11:28:03;7.30;;;5.30;;
63218;SDS011;49320;52.512;13.448;2024-02-21T11:30:31;9.05;;;5.18;;
63218;SDS011;49320;52.512;13.448;2024-02-21T11:33:02;8.77;;;5.68;;
63218;SDS011;49320;52.512;13.448;2024-02-21T11:35:32;9.88;;;5.80;;
63218;SDS011;49320;52.512;13.448;2024-02-21T11:38:10;9.68;;;5.38;;
63218;SDS011;49320;52.512;13.448;2024-02-21T11:40:46;6.97;;;5.13;;
63218;SDS011;49320;52.512;13.448;2024-02-21T11:43:14;7.43;;;5.38;;
63218;SDS011;49320;52.512;13.448;2024-02-21T11:45:42;5.63;;;4.47;;
63218;SDS011;49320;52.512;13.448;2024-02-21T11:48:09;6.85;;;5.20;;
63218;SDS011;49320;52.512;13.448;2024-02-21T11:50:36;5.75;;;5.00;;
63218;SDS011;49320;52.512;13.448;2024-02-21T11:53:05;6.78;;;4.57;;
63218;SDS011;49320;52.512;13.448;2024-02-21T11:55:32;10.90;;;4.55;;
63218;SDS011;49320;52.512;13.448;2024-02-21T11:58:00;6.25;;;4.70;;
63218;SDS011;49320;52.512;13.448;2024-02-21T12:00:27;5.93;;;4.43;;
63218;SDS011;49320;52.512;13.448;2024-02-21T12:02:54;5.68;;;4.10;;
63218;SDS011;49320;52.512;13.448;2024-02-21T12:05:26;6.07;;;3.95;;
63218;SDS011;49320;52.512;13.448;2024-02-21T12:07:55;5.50;;;3.80;;
63218;SDS011;49320;52.512;13.448;2024-02-21T12:10:25;5.25;;;3.80;;
63218;SDS011;49320;52.512;13.448;2024-02-21T12:13:06;10.02;;;4.55;;
63218;SDS011;49320;52.512;13.448;2024-02-21T12:15:36;4.53;;;3.60;;
63218;SDS011;49320;52.512;13.448;2024-02-21T12:18:05;5.97;;;4.00;;
63218;SDS011;49320;52.512;13.448;2024-02-21T12:20:32;4.75;;;3.50;;
63218;SDS011;49320;52.512;13.448;2024-02-21T12:23:02;8.02;;;3.80;;
63218;SDS011;49320;52.512;13.448;2024-02-21T12:25:31;6.30;;;3.53;;
63218;SDS011;49320;52.512;13.448;2024-02-21T12:27:59;5.30;;;3.67;;
63218;SDS011;49320;52.512;13.448;2024-02-21T12:30:26;4.80;;;3.08;;
63218;SDS011;49320;52.512;13.448;2024-02-21T12:32:53;8.35;;;3.70;;
63218;SDS011;49320;52.512;13.448;2024-02-21T12:35:20;5.40;;;3.70;;
63218;SDS011;49320;52.512;13.448;2024-02-21T12:37:47;5.22;;;3.05;;
63218;SDS011;49320;52.512;13.448;2024-02-21T12:40:14;5.72;;;3.40;;
63218;SDS011;49320;52.512;13.448;2024-02-21T12:42:41;7.43;;;3.58;;
63218;SDS011;49320;52.512;13.448;2024-02-21T12:45:09;6.53;;;3.38;;
63218;SDS011;49320;52.512;13.448;2024-02-21T12:47:36;4.80;;;3.40;;
63218;SDS011;49320;52.512;13.448;2024-02-21T12:50:03;4.90;;;2.90;;
63218;SDS011;49320;52.512;13.448;2024-02-21T12:52:33;5.05;;;3.15;;
63218;SDS011;49320;52.512;13.448;2024-02-21T12:55:00;4.00;;;3.03;;
63218;SDS011;49320;52.512;13.448;2024-02-21T12:57:27;4.47;;;3.28;;
63218;SDS011;49320;52.512;13.448;2024-02-21T12:59:54;8.48;;;2.72;;
63218;SDS011;49320;52.512;13.448;2024-02-21T13:02:21;4.65;;;2.90;;
63218;SDS011;49320;52.512;13.448;2024-02-21T13:04:48;6.53;;;3.97;;
63218;SDS011;49320;52.512;13.448;2024-02-21T13:07:15;5.20;;;2.97;;
63218;SDS011;49320;52.512;13.448;2024-02-21T13:09:42;5.38;;;3.33;;
63218;SDS011;49320;52.512;13.448;2024-02-21T13:12:08;4.82;;;3.15;;
63218;SDS011;49320;52.512;13.448;2024-02-21T13:14:36;4.85;;;2.90;;
63218;SDS011;49320;52.512;13.448;2024-02-21T13:17:05;5.68;;;2.63;;
63218;SDS011;49320;52.512;13.448;2024-02-21T13:19:32;6.07;;;2.70;;
63218;SDS011;49320;52.512;13.448;2024-02-21T13:21:59;4.78;;;2.58;;
63218;SDS011;49320;52.512;13.448;2024-02-21T13:24:26;5.47;;;3.00;;
63218;SDS011;49320;52.512;13.448;2024-02-21T13:26:54;6.93;;;3.17;;
63218;SDS011;49320;52.512;13.448;2024-02-21T13:29:21;6.00;;;3.25;;
63218;SDS011;49320;52.512;13.448;2024-02-21T13:31:48;8.00;;;3.28;;
63218;SDS011;49320;52.512;13.448;2024-02-21T13:34:16;4.43;;;2.70;;
63218;SDS011;49320;52.512;13.448;2024-02-21T13:36:43;4.13;;;2.75;;
63218;SDS011;49320;52.512;13.448;2024-02-21T13:39:10;5.55;;;2.92;;
63218;SDS011;49320;52.512;13.448;2024-02-21T13:41:42;6.10;;;3.05;;
63218;SDS011;49320;52.512;13.448;2024-02-21T13:44:08;4.30;;;3.10;;
63218;SDS011;49320;52.512;13.448;2024-02-21T13:46:35;5.38;;;3.05;;
63218;SDS011;49320;52.512;13.448;2024-02-21T13:49:03;7.97;;;3.58;;
63218;SDS011;49320;52.512;13.448;2024-02-21T13:51:33;5.25;;;3.35;;
63218;SDS011;49320;52.512;13.448;2024-02-21T13:54:04;5.68;;;2.80;;
63218;SDS011;49320;52.512;13.448;2024-02-21T13:56:31;6.13;;;3.10;;
63218;SDS011;49320;52.512;13.448;2024-02-21T13:58:58;5.25;;;2.83;;
63218;SDS011;49320;52.512;13.448;2024-02-21T14:01:26;5.20;;;3.00;;
63218;SDS011;49320;52.512;13.448;2024-02-21T14:03:56;4.63;;;3.05;;
63218;SDS011;49320;52.512;13.448;2024-02-21T14:06:23;5.13;;;3.20;;
63218;SDS011;49320;52.512;13.448;2024-02-21T14:08:49;5.15;;;3.33;;
63218;SDS011;49320;52.512;13.448;2024-02-21T14:11:16;6.93;;;3.67;;
63218;SDS011;49320;52.512;13.448;2024-02-21T14:13:44;4.80;;;3.25;;
63218;SDS011;49320;52.512;13.448;2024-02-21T14:16:11;4.60;;;2.75;;
63218;SDS011;49320;52.512;13.448;2024-02-21T14:18:39;7.10;;;3.15;;
63218;SDS011;49320;52.512;13.448;2024-02-21T14:21:10;4.15;;;2.97;;
63218;SDS011;49320;52.512;13.448;2024-02-21T14:23:37;4.53;;;2.90;;
63218;SDS011;49320;52.512;13.448;2024-02-21T14:26:05;4.88;;;3.25;;
63218;SDS011;49320;52.512;13.448;2024-02-21T14:28:32;4.63;;;3.00;;
63218;SDS011;49320;52.512;13.448;2024-02-21T14:31:02;4.57;;;3.03;;
63218;SDS011;49320;52.512;13.448;2024-02-21T14:33:32;6.30;;;3.05;;
63218;SDS011;49320;52.512;13.448;2024-02-21T14:35:59;5.90;;;3.08;;
63218;SDS011;49320;52.512;13.448;2024-02-21T14:38:27;3.92;;;2.40;;
63218;SDS011;49320;52.512;13.448;2024-02-21T14:40:54;3.92;;;2.90;;